Etusivu
METAR-TAF:

METAR-TAF

Lentoasemat :

Heliport

Værøy, Norja

Leveyspiiri: 67-39-16N, Pituuspiiri: 12-43-37E, korkeus merenpinnasta: 5 m

Tämänhetkinen sää

Tämä raportti tehtiin 10 minuuttia sitten, kello 12.50 UTC
Tuuli 20 kn lännestä/luoteesta
Lämpötila 6°C
Kosteus 81%
Ilmanpaine 984 hPa
Näkyvyys 10 km tai enemmän
Hajanaisia pilviä 2000 ft:n korkeudessa
Hajonneita pilviä 4000 ft:n korkeudessa
vesikuuroja

METAR: ENVR 231250Z 29020KT 9999 SHRA SCT020 BKN040 06/03 Q0984

Aika: 15:00 (13:00 UTC)


TAF: puuttuu

Säähavainnot ja -ennusteet yli 4000 lentoasemalta (METAR- ja TAF-raportit).

Käytössä olevat sääasemat on merkitty karttaan keltaisilla ja punaisilla pisteillä.

Aseta hiiri pisteen päälle nähdäksesi sääaseman nimen.

Klikkaa sitten nähdäksesi säähavainnot ja -ennusteet.

Kartan vaihtaminen: klikkaa mustalla rastilla varustettuja vihreitä pisteitä, niin voit zoomata sisään; viivalla varustettua vihreää pistettä, niin voit zoomata ulos tai vihreitä nuolia, niin pääset viereisille kartoille.


METAR-TAF: